Time;durP1;ratioP1;P1;durP2;ratioP2;P2;SDS_P1;SDS_P2;PMS_P1;PMS_P2;Temp;Humidity;BMP_temperature;BMP_pressure;BME280_temperature;BME280_humidity;BME280_pressure;Samples;Min_cycle;Max_cycle;Signal;HPM_P1;HPM_P2
2021/07/11 00:01:45;;;;;;;3.33;2.40;;;;;;;19.81;64.68;96660.00;5094310;28;20210;-67
2021/07/11 00:04:10;;;;;;;2.30;2.10;;;;;;;19.84;65.02;96656.88;5094446;28;20709;-68
2021/07/11 00:06:37;;;;;;;3.20;2.50;;;;;;;19.89;64.96;96657.03;5093903;28;20252;-66
2021/07/11 00:09:06;;;;;;;2.07;1.97;;;;;;;19.58;66.70;96650.03;5094330;28;20237;-66
2021/07/11 00:11:33;;;;;;;5.63;2.40;;;;;;;19.46;66.31;96660.63;5095072;28;20543;-66
2021/07/11 00:14:02;;;;;;;3.00;2.70;;;;;;;19.53;66.08;96652.56;5093930;28;20423;-66
2021/07/11 00:16:29;;;;;;;2.40;2.20;;;;;;;19.41;66.37;96650.63;5086382;28;20412;-66
2021/07/11 00:18:55;;;;;;;2.93;2.70;;;;;;;19.24;67.75;96642.47;5096316;28;20416;-67
2021/07/11 00:21:21;;;;;;;2.60;2.40;;;;;;;19.24;67.50;96631.03;5093475;28;20519;-68
2021/07/11 00:23:47;;;;;;;2.77;2.57;;;;;;;19.34;66.94;96640.09;5093361;28;20507;-66
2021/07/11 00:26:12;;;;;;;2.60;2.40;;;;;;;19.42;66.57;96632.88;5095911;28;20457;-66
2021/07/11 00:28:38;;;;;;;4.07;2.10;;;;;;;19.37;66.50;96630.06;5093413;28;20264;-66
2021/07/11 00:31:04;;;;;;;2.23;2.03;;;;;;;19.25;67.10;96630.81;5093562;28;20300;-67
2021/07/11 00:33:30;;;;;;;9.60;2.70;;;;;;;19.36;66.63;96636.41;5092949;28;20495;-67
2021/07/11 00:35:56;;;;;;;8.97;2.33;;;;;;;19.11;66.64;96632.81;5093369;28;20186;-66
2021/07/11 00:38:21;;;;;;;4.70;2.40;;;;;;;18.93;67.44;96640.72;5092781;28;20280;-66
2021/07/11 00:40:48;;;;;;;2.20;2.00;;;;;;;18.83;68.38;96639.38;5092885;28;20582;-66
2021/07/11 00:43:13;;;;;;;2.67;2.30;;;;;;;18.94;67.01;96645.03;5092255;28;20181;-67
2021/07/11 00:45:39;;;;;;;4.07;2.20;;;;;;;18.84;67.46;96648.97;5087552;28;20423;-67
2021/07/11 00:48:05;;;;;;;2.63;2.40;;;;;;;18.84;67.35;96648.13;5089488;28;20348;-66
2021/07/11 00:50:31;;;;;;;2.50;2.30;;;;;;;18.80;67.25;96647.78;5091477;28;20475;-66
2021/07/11 00:52:56;;;;;;;2.10;2.00;;;;;;;18.91;67.09;96640.94;5092784;28;20177;-67
2021/07/11 00:55:23;;;;;;;2.60;2.40;;;;;;;18.77;67.41;96640.28;5092677;28;20551;-68
2021/07/11 00:57:49;;;;;;;2.60;2.40;;;;;;;18.68;67.30;96644.22;5092536;28;20672;-65
2021/07/11 01:00:16;;;;;;;2.47;2.20;;;;;;;18.80;67.03;96646.97;5092396;28;20439;-67
2021/07/11 01:02:50;;;;;;;2.20;2.00;;;;;;;18.80;67.20;96644.31;5092592;28;20412;-67
2021/07/11 01:05:16;;;;;;;2.47;2.27;;;;;;;18.61;67.41;96641.63;5091695;28;20427;-67
2021/07/11 01:07:43;;;;;;;2.97;2.03;;;;;;;18.25;68.38;96640.47;5091242;28;20508;-67
2021/07/11 01:10:30;;;;;;;2.50;2.30;;;;;;;18.44;67.97;96646.66;5091963;28;20773;-66
2021/07/11 01:12:57;;;;;;;2.43;2.23;;;;;;;18.47;68.12;96646.22;5091991;28;20416;-67
2021/07/11 01:15:23;;;;;;;3.40;2.10;;;;;;;18.50;68.24;96651.09;5089135;28;21211;-67
2021/07/11 01:17:51;;;;;;;2.83;2.63;;;;;;;18.68;67.48;96646.88;5086903;28;20473;-66
2021/07/11 01:20:40;;;;;;;2.20;2.07;;;;;;;18.53;67.76;96653.31;5090841;28;20420;-66
2021/07/11 01:23:08;;;;;;;2.20;2.00;;;;;;;18.81;66.97;96652.06;5090021;28;20463;-66
2021/07/11 01:25:43;;;;;;;2.43;2.23;;;;;;;18.68;67.60;96660.13;5090341;28;20420;-67
2021/07/11 01:28:13;;;;;;;2.90;2.10;;;;;;;18.70;67.87;96650.13;5090701;28;20431;-67
2021/07/11 01:30:39;;;;;;;2.47;2.27;;;;;;;18.51;68.63;96652.72;5094642;28;20463;-66
2021/07/11 01:33:06;;;;;;;3.80;2.30;;;;;;;18.56;68.37;96655.53;5090484;28;20423;-65
2021/07/11 01:35:33;;;;;;;2.27;2.07;;;;;;;18.39;68.75;96663.22;5091344;28;20453;-66
2021/07/11 01:37:59;;;;;;;3.23;2.60;;;;;;;18.09;70.12;96652.41;5090196;28;20455;-67
2021/07/11 01:40:27;;;;;;;3.40;2.40;;;;;;;17.95;70.99;96649.81;5090983;28;20523;-67
2021/07/11 01:42:53;;;;;;;2.70;2.50;;;;;;;17.94;70.88;96652.69;5090594;28;20428;-66
2021/07/11 01:45:19;;;;;;;3.20;2.70;;;;;;;17.98;71.00;96647.78;5088032;28;20424;-66
2021/07/11 01:47:45;;;;;;;3.23;2.50;;;;;;;18.22;70.10;96654.97;5085855;28;20424;-66
2021/07/11 01:50:11;;;;;;;2.60;2.40;;;;;;;18.57;68.98;96649.19;5089817;28;20209;-66
2021/07/11 01:52:37;;;;;;;2.53;2.33;;;;;;;18.33;68.94;96656.13;5089600;28;20222;-67
2021/07/11 01:55:05;;;;;;;2.70;2.50;;;;;;;18.17;70.12;96657.44;5086461;28;20750;-67
2021/07/11 01:57:30;;;;;;;3.77;2.67;;;;;;;18.85;67.75;96655.91;5091195;28;20192;-67
2021/07/11 01:59:56;;;;;;;3.40;2.50;;;;;;;18.93;67.12;96656.63;5091158;28;20775;-64
2021/07/11 02:02:21;;;;;;;5.40;2.30;;;;;;;18.88;66.91;96658.13;5091415;28;20202;-67
2021/07/11 02:04:47;;;;;;;2.37;2.13;;;;;;;18.85;67.04;96658.56;5090986;28;20269;-66
2021/07/11 02:07:12;;;;;;;3.13;2.43;;;;;;;18.61;67.76;96662.03;5090663;28;20617;-66
2021/07/11 02:09:38;;;;;;;2.40;2.00;;;;;;;18.00;70.52;96661.66;5091275;28;20206;-65
2021/07/11 02:12:05;;;;;;;2.50;2.30;;;;;;;18.33;69.13;96665.91;5090316;28;20206;-66
2021/07/11 02:14:33;;;;;;;2.40;2.30;;;;;;;18.51;68.92;96660.69;5090671;28;20268;-66
2021/07/11 02:17:02;;;;;;;2.83;2.50;;;;;;;18.70;67.63;96658.06;5072989;28;20994;-65
2021/07/11 02:19:29;;;;;;;2.40;2.27;;;;;;;18.92;66.93;96657.66;5093993;28;20411;-66
2021/07/11 02:21:54;;;;;;;2.87;2.20;;;;;;;18.37;69.40;96653.84;5093695;28;20436;-66
2021/07/11 02:24:21;;;;;;;2.50;2.30;;;;;;;18.81;67.61;96651.25;5090779;28;20992;-66
2021/07/11 02:26:47;;;;;;;3.00;2.70;;;;;;;18.90;67.06;96651.78;5091585;28;20209;-65
2021/07/11 02:29:13;;;;;;;3.30;2.03;;;;;;;17.92;70.66;96649.44;5094667;28;20455;-65
2021/07/11 02:31:42;;;;;;;2.23;2.07;;;;;;;18.39;69.89;96651.81;5095369;28;20232;-67
2021/07/11 02:34:09;;;;;;;2.33;2.20;;;;;;;18.71;68.42;96652.53;5092692;28;20231;-66
2021/07/11 02:36:34;;;;;;;2.60;2.40;;;;;;;18.72;68.07;96645.41;5091066;28;20473;-65
2021/07/11 02:39:10;;;;;;;2.10;1.90;;;;;;;18.94;67.30;96650.34;5091011;28;20938;-66
2021/07/11 02:41:38;;;;;;;4.13;2.20;;;;;;;18.56;68.48;96655.53;5091847;28;20200;-66
2021/07/11 02:44:08;;;;;;;2.50;2.30;;;;;;;18.80;67.69;96658.38;5093173;28;20434;-66
2021/07/11 02:46:40;;;;;;;2.33;2.13;;;;;;;18.48;68.89;96650.50;5083175;28;20430;-66
2021/07/11 02:49:07;;;;;;;2.30;2.07;;;;;;;18.56;69.33;96655.53;5094257;28;20833;-66
2021/07/11 02:51:39;;;;;;;2.60;2.40;;;;;;;18.84;67.84;96654.28;5090683;28;20448;-66
2021/07/11 02:54:06;;;;;;;2.90;2.53;;;;;;;18.69;68.75;96653.78;5072647;28;20824;-65
2021/07/11 02:56:35;;;;;;;2.40;2.20;;;;;;;18.91;68.05;96653.38;5091250;28;20415;-66
2021/07/11 02:59:01;;;;;;;2.20;2.00;;;;;;;18.72;69.11;96650.72;5090625;28;20974;-66
2021/07/11 03:01:28;;;;;;;2.70;2.23;;;;;;;18.92;68.26;96652.34;5090248;28;20535;-66
2021/07/11 03:03:56;;;;;;;2.17;1.97;;;;;;;19.09;67.41;96657.97;5091097;28;20416;-65
2021/07/11 03:06:22;;;;;;;5.20;2.10;;;;;;;19.01;67.61;96649.25;5093391;28;20510;-65
2021/07/11 03:08:47;;;;;;;2.60;2.40;;;;;;;18.97;67.97;96652.56;5093820;28;20522;-66
2021/07/11 03:11:14;;;;;;;2.37;2.13;;;;;;;18.76;69.04;96651.09;5094870;28;20239;-67
2021/07/11 03:13:40;;;;;;;2.60;2.40;;;;;;;18.56;69.73;96650.22;5094325;28;20174;-65
2021/07/11 03:16:06;;;;;;;6.70;2.20;;;;;;;18.64;69.19;96646.50;5085043;28;20475;-65
2021/07/11 03:18:35;;;;;;;4.40;2.20;;;;;;;18.56;69.32;96649.44;5095222;28;20423;-66
2021/07/11 03:21:00;;;;;;;2.70;2.27;;;;;;;18.23;71.22;96661.09;5092596;28;20232;-66
2021/07/11 03:23:27;;;;;;;2.63;2.43;;;;;;;18.30;70.88;96655.72;5085325;28;20502;-66
2021/07/11 03:25:52;;;;;;;2.40;2.20;;;;;;;18.12;71.51;96654.66;5087105;28;20178;-65
2021/07/11 03:28:19;;;;;;;4.13;2.40;;;;;;;18.15;71.23;96653.41;5096052;28;20492;-66
2021/07/11 03:30:47;;;;;;;2.73;2.23;;;;;;;18.39;70.20;96649.16;5088400;28;20209;-65
2021/07/11 03:33:13;;;;;;;4.10;2.43;;;;;;;18.65;69.28;96650.78;5076172;28;20431;-66
2021/07/11 03:35:43;;;;;;;3.00;2.30;;;;;;;18.47;70.19;96648.88;5080264;28;20427;-66
2021/07/11 03:38:14;;;;;;;3.70;2.50;;;;;;;18.10;71.63;96646.88;5092728;28;20439;-67
2021/07/11 03:40:42;;;;;;;3.00;2.70;;;;;;;18.07;72.42;96654.47;5092232;28;20427;-66
2021/07/11 03:43:09;;;;;;;4.63;2.60;;;;;;;17.93;72.51;96659.81;5092388;28;20791;-67
2021/07/11 03:45:38;;;;;;;3.60;2.80;;;;;;;18.50;70.39;96656.41;5091610;28;20426;-66
2021/07/11 03:48:11;;;;;;;3.53;2.60;;;;;;;18.79;69.27;96658.63;5092589;28;20432;-66
2021/07/11 03:50:40;;;;;;;4.83;2.60;;;;;;;18.33;70.37;96663.25;5092228;28;20512;-66
2021/07/11 03:53:08;;;;;;;3.10;2.47;;;;;;;18.17;70.93;96657.44;5092477;28;20937;-66
2021/07/11 03:55:36;;;;;;;6.27;2.70;;;;;;;17.94;71.79;96657.97;5093486;28;20489;-68
2021/07/11 03:58:03;;;;;;;3.13;2.53;;;;;;;18.12;71.85;96659.94;5093505;28;20412;-68
2021/07/11 04:00:28;;;;;;;3.13;2.73;;;;;;;18.00;71.95;96672.25;5092022;28;20427;-68
2021/07/11 04:02:54;;;;;;;4.03;2.40;;;;;;;18.47;70.14;96667.44;5074928;28;20893;-68
2021/07/11 04:05:21;;;;;;;2.63;2.43;;;;;;;18.21;71.19;96661.31;5088037;28;21392;-67
2021/07/11 04:07:49;;;;;;;2.90;2.50;;;;;;;17.99;71.66;96663.47;5072101;28;20288;-67
2021/07/11 04:10:15;;;;;;;6.00;2.60;;;;;;;18.30;71.00;96671.66;5090875;28;20463;-66
2021/07/11 04:12:40;;;;;;;4.00;3.00;;;;;;;18.47;69.97;96675.41;5092519;28;20827;-67
2021/07/11 04:15:06;;;;;;;2.67;2.47;;;;;;;18.41;70.64;96671.78;5095196;28;20186;-67
2021/07/11 04:17:33;;;;;;;3.93;2.97;;;;;;;18.68;69.51;96684.00;5092303;28;20182;-66
2021/07/11 04:20:00;;;;;;;4.57;2.77;;;;;;;17.73;72.74;96675.81;5091967;28;20177;-66
2021/07/11 04:22:26;;;;;;;2.83;2.63;;;;;;;18.36;70.79;96676.09;5097515;28;20447;-66
2021/07/11 04:24:53;;;;;;;3.53;2.70;;;;;;;17.99;71.67;96670.63;5097076;28;20431;-66
2021/07/11 04:27:20;;;;;;;3.07;2.87;;;;;;;18.13;71.32;96677.47;5095129;28;20443;-66
2021/07/11 04:29:46;;;;;;;3.30;2.90;;;;;;;17.95;71.81;96686.91;5098484;28;20459;-66
2021/07/11 04:32:12;;;;;;;2.90;2.70;;;;;;;18.23;71.38;96675.16;5093847;28;20849;-66
2021/07/11 04:34:39;;;;;;;2.43;2.23;;;;;;;18.16;71.56;96666.44;5092071;28;20209;-66
2021/07/11 04:37:06;;;;;;;2.70;2.50;;;;;;;17.93;72.17;96670.41;5094927;28;20431;-66
2021/07/11 04:39:32;;;;;;;3.03;2.70;;;;;;;18.27;71.18;96676.34;5095350;28;20838;-66
2021/07/11 04:41:58;;;;;;;3.40;3.10;;;;;;;18.33;70.88;96679.19;5092756;28;20446;-67
2021/07/11 04:44:25;;;;;;;3.33;2.83;;;;;;;18.40;70.83;96690.53;5091066;28;20420;-66
2021/07/11 04:46:51;;;;;;;4.97;2.60;;;;;;;18.61;69.77;96683.25;5092583;28;20790;-65
2021/07/11 04:49:17;;;;;;;5.33;2.53;;;;;;;18.74;69.21;96677.84;5091926;28;20467;-66
2021/07/11 04:51:43;;;;;;;2.40;2.30;;;;;;;18.27;71.10;96689.59;5092303;28;20193;-65
2021/07/11 04:54:08;;;;;;;3.40;3.00;;;;;;;18.67;69.58;96685.03;5092029;28;20185;-65
2021/07/11 04:56:35;;;;;;;4.37;2.60;;;;;;;18.41;69.91;96692.16;5092177;28;20177;-66
2021/07/11 04:59:01;;;;;;;2.97;2.77;;;;;;;18.27;70.36;96684.31;5091961;28;20864;-67
2021/07/11 05:01:26;;;;;;;3.73;2.50;;;;;;;18.69;69.36;96680.34;5092564;28;20436;-67
2021/07/11 05:03:53;;;;;;;2.60;2.40;;;;;;;18.39;70.28;96696.91;5092178;28;20235;-66
2021/07/11 05:06:18;;;;;;;3.37;3.07;;;;;;;18.61;69.86;96693.88;5086791;28;20621;-66
2021/07/11 05:08:44;;;;;;;4.83;3.13;;;;;;;18.76;69.25;96697.03;5092163;28;20542;-67
2021/07/11 05:11:10;;;;;;;2.67;2.47;;;;;;;18.97;68.20;96698.50;5091706;28;20921;-67
2021/07/11 05:13:35;;;;;;;15.20;3.17;;;;;;;18.74;68.51;96704.41;5091657;28;20215;-66
2021/07/11 05:16:01;;;;;;;3.53;2.70;;;;;;;18.42;69.84;96705.25;5091899;28;20257;-67
2021/07/11 05:18:27;;;;;;;2.90;2.70;;;;;;;18.67;69.53;96706.28;5091901;28;20191;-66
2021/07/11 05:20:52;;;;;;;3.00;2.43;;;;;;;19.14;67.63;96704.06;5091855;28;20197;-67
2021/07/11 05:23:18;;;;;;;4.70;2.77;;;;;;;18.70;68.76;96713.81;5091799;28;20243;-67
2021/07/11 05:25:43;;;;;;;5.37;2.70;;;;;;;19.14;67.26;96697.94;5090562;28;20178;-67
2021/07/11 05:28:09;;;;;;;2.83;2.57;;;;;;;19.48;65.96;96696.56;5091456;28;20199;-66
2021/07/11 05:30:34;;;;;;;2.93;2.50;;;;;;;19.17;66.80;96698.31;5093764;28;20526;-66
2021/07/11 05:33:00;;;;;;;2.53;2.33;;;;;;;19.27;66.69;96702.31;5091507;28;20174;-66
2021/07/11 05:35:26;;;;;;;2.43;2.23;;;;;;;19.34;66.16;96705.72;5074210;28;20197;-66
2021/07/11 05:37:51;;;;;;;4.10;2.90;;;;;;;19.36;66.53;96701.00;5091353;28;20223;-66
2021/07/11 05:40:17;;;;;;;3.37;2.40;;;;;;;19.09;67.49;96703.91;5091435;28;20201;-66
2021/07/11 05:42:43;;;;;;;2.83;2.53;;;;;;;19.19;67.08;96706.06;5091361;28;20200;-68
2021/07/11 05:45:10;;;;;;;3.33;2.50;;;;;;;18.74;68.43;96707.06;5088082;28;20189;-67
2021/07/11 05:47:37;;;;;;;3.13;2.60;;;;;;;18.99;67.95;96706.25;5090261;28;20489;-67
2021/07/11 05:50:05;;;;;;;3.33;2.60;;;;;;;19.18;67.39;96707.91;5091437;28;20945;-66
2021/07/11 05:52:30;;;;;;;3.10;2.43;;;;;;;19.54;65.96;96704.66;5090615;28;20432;-66
2021/07/11 05:54:56;;;;;;;3.27;2.87;;;;;;;19.63;65.38;96711.31;5090985;28;20933;-66
2021/07/11 05:57:21;;;;;;;3.67;3.00;;;;;;;19.60;65.19;96714.41;5090138;28;20186;-66
2021/07/11 05:59:47;;;;;;;2.50;2.30;;;;;;;19.11;66.38;96709.81;5091839;28;20219;-67
2021/07/11 06:02:12;;;;;;;2.73;2.53;;;;;;;19.68;63.70;96708.78;5090520;28;20214;-67
2021/07/11 06:04:38;;;;;;;3.97;2.40;;;;;;;20.02;63.05;96719.88;5090791;28;20177;-67
2021/07/11 06:07:04;;;;;;;3.63;2.20;;;;;;;19.35;63.96;96715.31;5090974;28;20197;-69
2021/07/11 06:09:29;;;;;;;5.57;2.57;;;;;;;19.30;63.99;96718.63;5091262;28;20342;-68
2021/07/11 06:11:55;;;;;;;2.90;2.60;;;;;;;19.60;63.03;96715.22;5089264;28;20761;-65
2021/07/11 06:14:21;;;;;;;4.67;2.50;;;;;;;19.56;63.09;96715.88;5085803;28;20641;-65
2021/07/11 06:16:46;;;;;;;2.60;2.40;;;;;;;20.06;61.41;96726.34;5093402;28;20170;-67
2021/07/11 06:19:13;;;;;;;2.37;2.20;;;;;;;20.01;60.67;96723.56;5090722;28;20193;-66
2021/07/11 06:21:38;;;;;;;4.87;2.57;;;;;;;19.53;62.42;96719.00;5085134;28;20224;-66
2021/07/11 06:24:04;;;;;;;3.70;2.67;;;;;;;20.35;59.46;96718.59;5082382;28;20441;-66
2021/07/11 06:26:30;;;;;;;2.60;2.37;;;;;;;20.26;59.14;96720.78;5084718;28;20192;-67
2021/07/11 06:28:56;;;;;;;2.53;2.33;;;;;;;20.85;57.59;96721.97;5080293;28;20182;-67
2021/07/11 06:31:21;;;;;;;4.00;2.30;;;;;;;20.85;56.96;96721.97;5086257;28;20262;-66
2021/07/11 06:33:47;;;;;;;3.00;2.47;;;;;;;20.84;56.41;96723.84;5090919;28;20185;-66
2021/07/11 06:36:13;;;;;;;2.70;2.20;;;;;;;20.81;55.02;96726.13;5093650;28;20212;-66
2021/07/11 06:38:38;;;;;;;7.13;2.60;;;;;;;20.37;56.21;96727.19;5078978;28;20939;-67
2021/07/11 06:41:04;;;;;;;3.10;2.40;;;;;;;20.23;55.88;96720.41;5085762;28;20194;-67
2021/07/11 06:43:29;;;;;;;4.13;2.50;;;;;;;19.89;56.98;96728.03;5089336;28;20182;-67
2021/07/11 06:45:55;;;;;;;2.77;2.40;;;;;;;20.58;55.52;96716.25;5085888;28;20174;-67
2021/07/11 06:48:21;;;;;;;3.30;2.27;;;;;;;20.44;56.61;96716.44;5090898;28;20555;-66
2021/07/11 06:50:46;;;;;;;3.40;2.53;;;;;;;20.74;55.58;96718.22;5091060;28;20288;-64
2021/07/11 06:53:12;;;;;;;2.60;2.40;;;;;;;20.89;55.81;96725.81;5090584;28;20177;-65
2021/07/11 06:55:38;;;;;;;2.40;2.20;;;;;;;21.52;53.81;96714.66;5090939;28;20273;-65
2021/07/11 06:58:04;;;;;;;3.30;2.80;;;;;;;20.81;55.30;96724.28;5090639;28;20616;-65
2021/07/11 07:00:29;;;;;;;3.73;2.60;;;;;;;21.02;55.38;96725.59;5091448;28;20436;-65
2021/07/11 07:02:55;;;;;;;3.23;2.70;;;;;;;21.22;54.87;96719.09;5089858;28;20181;-65
2021/07/11 07:05:21;;;;;;;2.10;2.00;;;;;;;21.54;53.60;96716.06;5090558;28;20284;-65
2021/07/11 07:07:47;;;;;;;2.23;1.90;;;;;;;21.88;52.88;96716.22;5087066;28;20224;-65
2021/07/11 07:10:14;;;;;;;2.17;1.97;;;;;;;22.20;52.05;96713.09;5090203;28;20455;-64
2021/07/11 07:12:41;;;;;;;3.70;1.83;;;;;;;22.25;51.79;96718.53;5089326;28;20416;-65
2021/07/11 07:15:07;;;;;;;2.60;2.23;;;;;;;22.61;50.66;96730.91;5082714;28;20430;-65
2021/07/11 07:17:33;;;;;;;4.50;2.10;;;;;;;22.62;50.55;96722.66;5088787;28;20430;-65
2021/07/11 07:19:58;;;;;;;3.33;2.00;;;;;;;22.05;51.84;96723.50;5089412;28;20832;-66
2021/07/11 07:22:24;;;;;;;3.80;2.30;;;;;;;21.72;52.96;96730.31;5090301;28;20198;-66
2021/07/11 07:24:50;;;;;;;2.83;2.00;;;;;;;21.76;53.01;96728.78;5098046;28;20186;-66
2021/07/11 07:27:15;;;;;;;2.20;2.00;;;;;;;22.02;52.10;96731.97;5091630;28;20182;-66
2021/07/11 07:29:41;;;;;;;4.00;2.53;;;;;;;21.69;52.23;96731.59;5090301;28;20288;-66
2021/07/11 07:32:07;;;;;;;4.57;2.00;;;;;;;21.67;52.32;96735.53;5089832;28;20300;-66
2021/07/11 07:34:33;;;;;;;3.30;2.57;;;;;;;21.97;51.25;96726.53;5090396;28;20205;-66
2021/07/11 07:36:59;;;;;;;2.43;2.27;;;;;;;21.79;51.81;96728.31;5083879;28;20466;-66
2021/07/11 07:39:29;;;;;;;3.07;1.93;;;;;;;21.41;53.33;96740.28;5081616;28;20620;-66
2021/07/11 07:41:55;;;;;;;9.67;2.43;;;;;;;21.17;53.72;96743.78;5090422;28;20454;-66
2021/07/11 07:44:21;;;;;;;2.70;2.00;;;;;;;21.15;53.63;96750.38;5084374;28;20446;-66
2021/07/11 07:46:46;;;;;;;3.23;2.20;;;;;;;21.00;53.99;96741.00;5080912;28;20420;-67
2021/07/11 07:49:12;;;;;;;6.70;2.00;;;;;;;21.27;53.10;96740.53;5077013;28;20956;-67
2021/07/11 07:51:40;;;;;;;2.50;2.20;;;;;;;21.44;53.21;96750.47;5086733;28;20197;-68
2021/07/11 07:54:06;;;;;;;2.17;1.90;;;;;;;21.15;53.11;96743.19;5075309;28;20177;-69
2021/07/11 07:56:31;;;;;;;3.63;2.40;;;;;;;21.76;51.42;96742.13;5075619;28;20426;-69
2021/07/11 07:58:57;;;;;;;3.53;2.10;;;;;;;21.52;51.93;96744.81;5075881;28;20439;-69
2021/07/11 08:01:23;;;;;;;2.47;2.27;;;;;;;21.99;50.87;96735.09;5093903;28;20275;-69
2021/07/11 08:03:48;;;;;;;2.43;1.80;;;;;;;22.82;49.12;96740.88;5092535;28;20504;-69
2021/07/11 08:06:14;;;;;;;5.10;1.97;;;;;;;22.33;49.74;96743.19;5093982;28;20311;-69
2021/07/11 08:08:39;;;;;;;2.33;1.80;;;;;;;22.23;49.99;96731.28;5092061;28;20679;-69
2021/07/11 08:11:07;;;;;;;4.93;2.20;;;;;;;22.78;48.71;96731.75;5092272;28;20221;-68
2021/07/11 08:13:37;;;;;;;1.80;1.70;;;;;;;22.45;48.46;96737.84;5091270;28;20934;-68
2021/07/11 08:16:04;;;;;;;4.90;1.97;;;;;;;21.99;50.21;96749.22;5090810;28;20428;-66
2021/07/11 08:18:29;;;;;;;3.63;1.80;;;;;;;22.59;48.37;96739.16;5094044;28;20416;-69
2021/07/11 08:20:55;;;;;;;2.90;2.00;;;;;;;23.20;47.56;96737.72;5092138;28;20858;-69
2021/07/11 08:23:21;;;;;;;2.47;1.73;;;;;;;22.84;48.64;96736.09;5092992;28;20188;-70
2021/07/11 08:25:46;;;;;;;2.53;1.73;;;;;;;22.91;48.74;96745.81;5094060;28;20633;-70
2021/07/11 08:28:12;;;;;;;2.10;1.90;;;;;;;22.20;49.50;96741.63;5094033;28;20200;-68
2021/07/11 08:30:37;;;;;;;2.27;2.07;;;;;;;21.80;50.68;96748.59;5093810;28;20209;-70
2021/07/11 08:33:03;;;;;;;1.93;1.60;;;;;;;21.90;49.33;96754.16;5093260;28;20189;-69
2021/07/11 08:35:29;;;;;;;1.73;1.63;;;;;;;21.54;49.53;96753.38;5095229;28;20192;-69
2021/07/11 08:37:55;;;;;;;2.27;1.93;;;;;;;21.46;50.76;96745.72;5094228;28;20428;-70
2021/07/11 08:40:22;;;;;;;1.90;1.80;;;;;;;21.61;50.26;96753.28;5093915;28;20604;-69
2021/07/11 08:42:50;;;;;;;2.00;1.80;;;;;;;21.35;51.49;96759.88;5093869;28;20428;-69
2021/07/11 08:45:15;;;;;;;2.50;2.20;;;;;;;21.71;50.64;96755.34;5090268;28;20265;-70
2021/07/11 08:47:41;;;;;;;3.70;1.90;;;;;;;22.05;49.85;96760.84;5095608;28;20454;-68
2021/07/11 08:50:09;;;;;;;2.20;2.00;;;;;;;21.83;50.17;96760.66;5093235;28;20209;-68
2021/07/11 08:52:36;;;;;;;5.87;2.03;;;;;;;21.87;50.45;96765.28;5093571;28;20440;-69
2021/07/11 08:55:13;;;;;;;3.90;3.50;;;;;;;21.69;51.36;96768.09;5091385;28;20438;-69
2021/07/11 08:57:39;;;;;;;2.83;2.37;;;;;;;22.13;49.99;96759.63;5093190;28;20438;-69
2021/07/11 09:00:06;;;;;;;2.50;2.30;;;;;;;22.27;49.80;96766.31;5092641;28;20420;-70
2021/07/11 09:02:31;;;;;;;2.63;2.37;;;;;;;22.21;50.78;96770.75;5093190;28;20739;-70
2021/07/11 09:04:57;;;;;;;2.20;2.00;;;;;;;22.12;50.76;96769.50;5093280;28;20515;-68
2021/07/11 09:07:23;;;;;;;3.80;2.30;;;;;;;22.54;49.51;96774.59;5093866;28;20205;-68
2021/07/11 09:09:57;;;;;;;3.00;1.80;;;;;;;22.32;50.11;96771.75;5092406;28;20531;-68
2021/07/11 09:12:23;;;;;;;2.90;1.90;;;;;;;22.00;50.73;96780.19;5093124;28;20561;-67
2021/07/11 09:14:51;;;;;;;2.27;2.00;;;;;;;21.96;49.83;96773.72;5086209;28;20428;-68
2021/07/11 09:17:16;;;;;;;3.90;2.20;;;;;;;22.34;48.63;96775.00;5092778;28;20452;-68
2021/07/11 09:19:45;;;;;;;2.13;1.93;;;;;;;22.11;48.16;96775.09;5092673;28;20486;-68
2021/07/11 09:22:19;;;;;;;3.30;3.00;;;;;;;22.34;48.50;96777.69;5092792;28;20685;-67
2021/07/11 09:25:00;;;;;;;1.70;1.60;;;;;;;22.76;47.17;96773.06;5092041;28;20482;-68
2021/07/11 09:27:28;;;;;;;2.80;2.07;;;;;;;22.43;47.55;96777.31;5091959;28;20419;-68
2021/07/11 09:30:05;;;;;;;2.73;1.83;;;;;;;23.12;46.23;96773.69;5101246;28;20474;-70
2021/07/11 09:32:33;;;;;;;2.73;2.50;;;;;;;23.23;46.00;96770.13;5092050;28;20439;-70
2021/07/11 09:35:16;;;;;;;2.70;2.10;;;;;;;23.34;45.53;96772.97;5090778;28;20419;-71
2021/07/11 09:37:54;;;;;;;3.17;2.30;;;;;;;23.68;44.69;96771.03;5090449;28;20420;-68
2021/07/11 09:40:22;;;;;;;1.73;1.63;;;;;;;23.34;45.81;96771.06;5091727;28;20434;-68
2021/07/11 09:42:50;;;;;;;3.33;2.07;;;;;;;23.19;45.71;96770.84;5091684;28;20514;-70
2021/07/11 09:45:24;;;;;;;1.90;1.80;;;;;;;23.26;45.62;96774.97;5085871;28;20523;-69
2021/07/11 09:47:51;;;;;;;4.63;1.90;;;;;;;22.98;46.21;96784.69;5090935;28;20487;-68
2021/07/11 09:50:21;;;;;;;3.00;2.10;;;;;;;23.88;44.00;96775.81;5091621;28;20494;-67
2021/07/11 09:52:49;;;;;;;2.50;2.30;;;;;;;24.28;43.71;96765.88;5090428;28;20450;-69
2021/07/11 09:55:19;;;;;;;2.70;1.60;;;;;;;23.50;45.20;96776.66;5090730;28;20430;-68
2021/07/11 09:57:48;;;;;;;1.93;1.73;;;;;;;23.45;44.91;96772.03;5092044;28;20420;-66
2021/07/11 10:00:16;;;;;;;2.13;1.93;;;;;;;23.59;44.76;96767.16;5091384;28;20431;-68
2021/07/11 10:02:42;;;;;;;4.23;2.00;;;;;;;24.03;44.22;96772.56;5073198;28;20711;-70
2021/07/11 10:05:09;;;;;;;2.30;1.63;;;;;;;24.61;42.64;96771.31;5089786;28;20426;-71
2021/07/11 10:07:35;;;;;;;2.00;1.90;;;;;;;23.87;43.67;96763.53;5091866;28;20790;-70
2021/07/11 10:10:03;;;;;;;4.30;1.77;;;;;;;24.03;43.93;96767.22;5090920;28;20512;-67
2021/07/11 10:12:29;;;;;;;2.40;1.80;;;;;;;24.57;43.08;96765.66;5089377;28;20447;-68
2021/07/11 10:14:55;;;;;;;2.47;2.00;;;;;;;24.06;44.88;96766.72;5085532;28;20436;-67
2021/07/11 10:17:21;;;;;;;2.00;1.80;;;;;;;25.19;42.13;96766.19;5090859;28;20637;-68
2021/07/11 10:19:48;;;;;;;1.80;1.70;;;;;;;25.86;40.46;96763.09;5089671;28;20178;-68
2021/07/11 10:22:15;;;;;;;2.87;1.73;;;;;;;24.65;42.57;96767.84;5090878;28;20458;-68
2021/07/11 10:24:43;;;;;;;2.33;2.07;;;;;;;24.45;42.40;96773.00;5089720;28;20922;-68
2021/07/11 10:27:18;;;;;;;1.70;1.60;;;;;;;24.98;41.77;96776.72;5093718;28;20430;-69
2021/07/11 10:29:45;;;;;;;3.27;1.83;;;;;;;24.26;43.04;96768.00;5092945;28;20447;-68
2021/07/11 10:32:22;;;;;;;2.17;1.87;;;;;;;23.73;44.37;96779.09;5090638;28;20446;-68
2021/07/11 10:34:48;;;;;;;2.03;1.70;;;;;;;23.78;43.40;96776.50;5088962;28;20412;-70
2021/07/11 10:37:15;;;;;;;2.03;1.83;;;;;;;22.98;45.64;96775.84;5091325;28;20461;-67
2021/07/11 10:39:41;;;;;;;2.00;1.90;;;;;;;22.81;45.82;96779.31;5090656;28;20200;-68
2021/07/11 10:42:09;;;;;;;1.83;1.67;;;;;;;22.60;46.56;96778.16;5090518;28;20444;-68
2021/07/11 10:44:35;;;;;;;2.70;1.70;;;;;;;22.63;46.78;96784.88;5085903;28;20612;-67
2021/07/11 10:47:03;;;;;;;2.47;2.10;;;;;;;23.39;45.03;96779.19;5086378;28;20446;-70
2021/07/11 10:49:30;;;;;;;2.67;2.00;;;;;;;23.33;45.14;96785.50;5082697;28;20694;-69
2021/07/11 10:52:01;;;;;;;5.10;1.77;;;;;;;22.94;46.23;96783.53;5080590;28;20449;-69
2021/07/11 10:54:36;;;;;;;4.30;2.37;;;;;;;22.81;47.01;96773.16;5081802;28;20487;-69
2021/07/11 10:57:03;;;;;;;4.33;2.90;;;;;;;23.09;45.86;96780.31;5066417;28;20435;-69
2021/07/11 10:59:34;;;;;;;4.10;2.93;;;;;;;23.41;45.12;96776.25;5084170;28;20420;-69
2021/07/11 11:02:03;;;;;;;3.10;1.83;;;;;;;22.95;46.19;96784.34;5082527;28;20509;-68
2021/07/11 11:04:29;;;;;;;2.90;1.83;;;;;;;22.71;46.79;96787.16;5084066;28;20423;-69
2021/07/11 11:06:54;;;;;;;2.23;1.57;;;;;;;23.01;46.74;96780.72;5082781;28;20787;-69
2021/07/11 11:09:40;;;;;;;1.90;1.70;;;;;;;23.04;46.82;96779.41;5085302;28;20428;-70
2021/07/11 11:12:22;;;;;;;10.50;2.80;;;;;;;22.79;47.31;96789.44;5085350;28;20202;-69
2021/07/11 11:14:57;;;;;;;4.50;2.23;;;;;;;22.92;46.24;96792.88;5082633;28;21201;-70
2021/07/11 11:17:26;;;;;;;1.67;1.57;;;;;;;22.97;45.92;96788.41;5085008;28;20432;-69
2021/07/11 11:19:52;;;;;;;2.00;1.80;;;;;;;23.30;45.13;96786.00;5082911;28;20424;-69
2021/07/11 11:22:17;;;;;;;2.00;1.80;;;;;;;23.12;45.02;96779.81;5083371;28;20795;-69
2021/07/11 11:24:43;;;;;;;3.37;1.83;;;;;;;23.35;44.23;96786.06;5083569;28;20240;-68
2021/07/11 11:27:09;;;;;;;3.53;1.70;;;;;;;24.11;42.87;96779.34;5088148;28;20551;-69
2021/07/11 11:29:34;;;;;;;1.97;1.70;;;;;;;23.86;43.51;96772.59;5090642;28;20731;-69
2021/07/11 11:32:14;;;;;;;2.70;2.50;;;;;;;24.53;41.70;96773.34;5095264;28;20676;-70
2021/07/11 11:34:47;;;;;;;5.73;1.70;;;;;;;25.16;41.19;96777.41;5095128;28;20178;-70